createdAt,value
2022-10-23T00:03:59.827Z,14.58
2022-10-23T00:09:12.079Z,14.5
2022-10-23T00:14:24.513Z,14.44
2022-10-23T00:19:36.821Z,14.38
2022-10-23T00:24:49.094Z,14.36
2022-10-23T00:30:05.105Z,14.28
2022-10-23T00:35:17.479Z,14.21
2022-10-23T00:40:29.661Z,14.14
2022-10-23T00:45:41.934Z,14.11
2022-10-23T00:50:54.355Z,14.12
2022-10-23T00:56:06.552Z,14.14
2022-10-23T01:01:19.001Z,14.2
2022-10-23T01:06:31.076Z,14.21
2022-10-23T01:11:43.700Z,14.24
2022-10-23T01:16:56.081Z,14.28
2022-10-23T01:22:08.513Z,14.29
2022-10-23T01:27:20.882Z,14.28
2022-10-23T01:32:33.043Z,14.29
2022-10-23T01:37:45.377Z,14.24
2022-10-23T01:42:57.902Z,14.23
2022-10-23T01:48:10.103Z,14.21
2022-10-23T01:53:22.445Z,14.17
2022-10-23T01:58:34.817Z,14.14
2022-10-23T02:03:47.203Z,14.15
2022-10-23T02:08:59.276Z,14.21
2022-10-23T02:14:11.724Z,14.27
2022-10-23T02:19:24.216Z,14.33
2022-10-23T02:24:36.500Z,14.34
2022-10-23T02:29:48.739Z,14.3
2022-10-23T02:35:01.027Z,14.32
2022-10-23T02:40:14.157Z,14.26
2022-10-23T02:45:26.503Z,14.28
2022-10-23T02:50:38.678Z,14.3
2022-10-23T02:55:51.034Z,14.35
2022-10-23T03:01:03.450Z,14.44
2022-10-23T03:06:21.212Z,14.51
2022-10-23T03:11:28.538Z,14.5
2022-10-23T03:16:40.900Z,14.47
2022-10-23T03:21:53.275Z,14.42
2022-10-23T03:27:05.529Z,14.36
2022-10-23T03:32:18.187Z,14.36
2022-10-23T03:37:30.625Z,14.44
2022-10-23T03:42:43.086Z,14.49
2022-10-23T03:47:56.045Z,14.51
2022-10-23T03:53:08.247Z,14.54
2022-10-23T03:58:20.543Z,14.56
2022-10-23T04:03:32.909Z,14.51
2022-10-23T04:08:45.108Z,14.44
2022-10-23T04:13:57.333Z,14.38
2022-10-23T04:19:09.586Z,14.36
2022-10-23T04:24:21.775Z,14.35
2022-10-23T04:29:34.086Z,14.28
2022-10-23T04:34:46.459Z,14.23
2022-10-23T04:39:58.924Z,14.23
2022-10-23T04:45:11.226Z,14.27
2022-10-23T04:50:23.591Z,14.25
2022-10-23T04:55:35.790Z,14.2
2022-10-23T05:00:48.132Z,14.14
2022-10-23T05:06:00.271Z,14.09
2022-10-23T05:11:12.558Z,14.07
2022-10-23T05:16:24.802Z,14.03
2022-10-23T05:21:37.130Z,14.02
2022-10-23T05:26:49.405Z,14.02
2022-10-23T05:32:01.821Z,13.97
2022-10-23T05:37:14.213Z,13.92
2022-10-23T05:42:26.507Z,13.86
2022-10-23T05:47:38.837Z,13.85
2022-10-23T05:52:51.292Z,13.78
2022-10-23T05:58:03.342Z,13.76
2022-10-23T06:03:15.692Z,13.74
2022-10-23T06:08:28.259Z,13.67
2022-10-23T06:13:40.553Z,13.6
2022-10-23T06:18:52.773Z,13.6
2022-10-23T06:24:05.102Z,13.57
2022-10-23T06:29:17.316Z,13.54
2022-10-23T06:34:29.741Z,13.51
2022-10-23T06:39:42.114Z,13.51
2022-10-23T06:44:54.446Z,13.52
2022-10-23T06:50:08.635Z,13.63
2022-10-23T06:55:19.393Z,13.77
2022-10-23T07:00:31.681Z,13.83
2022-10-23T07:05:44.192Z,13.92
2022-10-23T07:10:56.574Z,13.98
2022-10-23T07:16:08.833Z,14.02
2022-10-23T07:21:21.359Z,14.1
2022-10-23T07:26:33.840Z,14.08
2022-10-23T07:31:46.208Z,14.12
2022-10-23T07:36:58.603Z,14.19
2022-10-23T07:42:11.059Z,14.28
2022-10-23T07:47:23.892Z,14.36
2022-10-23T07:52:36.315Z,14.4
2022-10-23T07:57:48.529Z,14.43
2022-10-23T08:03:00.759Z,14.47
2022-10-23T08:08:13.192Z,14.53
2022-10-23T08:13:25.508Z,14.65
2022-10-23T08:18:38.059Z,14.76
2022-10-23T08:23:50.365Z,14.9
2022-10-23T08:29:02.959Z,15.07
2022-10-23T08:34:15.221Z,15.24
2022-10-23T08:39:27.495Z,15.34
2022-10-23T08:44:39.994Z,15.47
2022-10-23T08:49:52.290Z,15.65
2022-10-23T08:55:04.692Z,15.85
2022-10-23T09:00:17.193Z,16.01
2022-10-23T09:05:29.473Z,16.11
2022-10-23T09:10:41.780Z,16.23
2022-10-23T09:15:54.135Z,16.34
2022-10-23T09:21:06.602Z,16.57
2022-10-23T09:26:19.169Z,16.83
2022-10-23T09:31:31.562Z,17.13
2022-10-23T09:36:43.999Z,17.43
2022-10-23T09:41:56.985Z,17.69
2022-10-23T09:47:08.709Z,17.99
2022-10-23T09:52:21.093Z,18.26
2022-10-23T09:57:33.512Z,18.5
2022-10-23T10:02:45.770Z,18.7
2022-10-23T10:07:58.487Z,18.86
2022-10-23T10:13:14.218Z,19.11
2022-10-23T10:18:23.623Z,19.35
2022-10-23T10:23:35.846Z,19.58
2022-10-23T10:28:48.299Z,19.86
2022-10-23T10:34:00.785Z,20.15
2022-10-23T10:39:13.138Z,20.42
2022-10-23T10:44:25.825Z,20.61
2022-10-23T10:49:38.171Z,20.81
2022-10-23T10:54:50.598Z,20.98
2022-10-23T11:00:02.793Z,21.06
2022-10-23T11:05:15.192Z,20.98
2022-10-23T11:10:27.428Z,20.87
2022-10-23T11:15:40.042Z,20.91
2022-10-23T11:20:52.549Z,21.11
2022-10-23T11:26:04.810Z,21.34
2022-10-23T11:31:17.192Z,21.52
2022-10-23T11:36:29.597Z,21.74
2022-10-23T11:41:42.124Z,21.88
2022-10-23T11:46:54.543Z,21.95
2022-10-23T11:52:07.064Z,22.02
2022-10-23T11:57:19.458Z,22.15
2022-10-23T12:02:32.026Z,22.34
2022-10-23T12:07:44.347Z,22.6
2022-10-23T12:12:56.588Z,22.82
2022-10-23T12:18:09.332Z,22.9
2022-10-23T12:23:21.667Z,22.83
2022-10-23T12:28:33.873Z,22.7
2022-10-23T12:33:46.394Z,22.54
2022-10-23T12:38:58.663Z,22.37
2022-10-23T12:44:10.795Z,22.16
2022-10-23T12:49:23.174Z,21.97
2022-10-23T12:54:35.405Z,21.82
2022-10-23T12:59:47.603Z,21.66
2022-10-23T13:04:59.922Z,21.47
2022-10-23T13:10:12.204Z,21.25
2022-10-23T13:15:24.375Z,21.05
2022-10-23T13:20:36.598Z,20.96
2022-10-23T13:25:49.239Z,20.98
2022-10-23T13:31:01.560Z,21.1
2022-10-23T13:36:13.963Z,21.28
2022-10-23T13:41:26.289Z,21.36
2022-10-23T13:46:38.602Z,21.31
2022-10-23T13:51:50.875Z,21.39
2022-10-23T13:57:03.418Z,21.46
2022-10-23T14:02:15.550Z,21.29
2022-10-23T14:07:27.716Z,21.08
2022-10-23T14:12:40.150Z,20.9
2022-10-23T14:17:55.291Z,20.77
2022-10-23T14:23:04.593Z,20.59
2022-10-23T14:28:16.928Z,20.53
2022-10-23T14:33:29.217Z,20.62
2022-10-23T14:38:41.556Z,20.68
2022-10-23T14:43:53.872Z,20.68
2022-10-23T14:49:06.059Z,20.6
2022-10-23T14:54:17.686Z,20.51
2022-10-23T14:59:29.823Z,20.48
2022-10-23T15:04:42.115Z,20.38
2022-10-23T15:09:54.729Z,20.34
2022-10-23T15:15:07.078Z,20.21
2022-10-23T15:20:19.415Z,19.93
2022-10-23T15:25:31.747Z,19.7
2022-10-23T15:30:44.063Z,19.55
2022-10-23T15:35:56.276Z,19.39
2022-10-23T15:41:08.616Z,19.23
2022-10-23T15:46:21.031Z,19.08
2022-10-23T15:51:33.142Z,18.91
2022-10-23T15:56:45.776Z,18.79
2022-10-23T16:01:58.201Z,18.74
2022-10-23T16:07:10.370Z,18.68
2022-10-23T16:12:22.729Z,18.58
2022-10-23T16:17:35.081Z,18.47
2022-10-23T16:22:47.501Z,18.4
2022-10-23T16:27:59.691Z,18.37
2022-10-23T16:33:11.880Z,18.3
2022-10-23T16:38:24.580Z,18.21
2022-10-23T16:43:36.862Z,18.12
2022-10-23T16:48:49.225Z,18.07
2022-10-23T16:54:01.534Z,18.02
2022-10-23T16:59:14.047Z,17.99
2022-10-23T17:04:26.413Z,17.98
2022-10-23T17:09:38.698Z,17.98
2022-10-23T17:14:51.037Z,17.96
2022-10-23T17:20:03.569Z,17.9
2022-10-23T17:25:16.096Z,17.81
2022-10-23T17:30:28.605Z,17.8
2022-10-23T17:35:40.747Z,17.77
2022-10-23T17:40:53.053Z,17.79
2022-10-23T17:46:05.300Z,17.74
2022-10-23T17:51:17.731Z,17.67
2022-10-23T17:56:30.331Z,17.7
2022-10-23T18:01:42.914Z,17.77
2022-10-23T18:06:55.079Z,17.78
2022-10-23T18:12:07.510Z,17.73
2022-10-23T18:17:19.903Z,17.71
2022-10-23T18:22:32.093Z,17.68
2022-10-23T18:27:45.693Z,17.62
2022-10-23T18:32:57.922Z,17.59
2022-10-23T18:38:10.415Z,17.54
2022-10-23T18:43:38.762Z,17.48
2022-10-23T18:48:34.997Z,17.39
2022-10-23T18:53:47.696Z,17.3
2022-10-23T18:59:00.048Z,17.2
2022-10-23T19:04:13.603Z,17.14
2022-10-23T19:09:26.052Z,17.06
2022-10-23T19:14:38.558Z,17.01
2022-10-23T19:19:51.090Z,16.94
2022-10-23T19:25:03.255Z,16.87
2022-10-23T19:30:16.287Z,16.78
2022-10-23T19:35:27.938Z,16.66
2022-10-23T19:40:40.395Z,16.56
2022-10-23T19:45:52.570Z,16.5
2022-10-23T19:51:04.894Z,16.47
2022-10-23T19:56:17.177Z,16.44
2022-10-23T20:01:29.591Z,16.44
2022-10-23T20:06:41.893Z,16.41
2022-10-23T20:11:54.117Z,16.39
2022-10-23T20:17:06.954Z,16.33
2022-10-23T20:22:19.189Z,16.28
2022-10-23T20:27:31.631Z,16.24
2022-10-23T20:32:44.353Z,16.22
2022-10-23T20:37:56.249Z,16.15
2022-10-23T20:43:08.588Z,16.09
2022-10-23T20:48:20.792Z,16.07
2022-10-23T20:53:33.327Z,16.03
2022-10-23T20:58:45.670Z,15.98
2022-10-23T21:03:58.073Z,15.96
2022-10-23T21:14:22.847Z,15.79
2022-10-23T21:19:35.240Z,15.7
2022-10-23T21:24:47.764Z,15.62
2022-10-23T21:29:59.985Z,15.67
2022-10-23T21:35:12.359Z,15.78
2022-10-23T21:40:24.925Z,15.83
2022-10-23T21:45:37.286Z,15.91
2022-10-23T21:56:01.978Z,15.96
2022-10-23T22:01:14.419Z,15.96
2022-10-23T22:06:26.611Z,15.96
2022-10-23T22:11:38.938Z,16.01
2022-10-23T22:16:51.242Z,16.07
2022-10-23T22:22:03.496Z,16.09
2022-10-23T22:27:15.940Z,16.03
2022-10-23T22:32:28.505Z,16.02
2022-10-23T22:37:40.854Z,16.01
2022-10-23T22:42:54.093Z,15.98
2022-10-23T22:48:06.454Z,15.89
2022-10-23T22:53:18.806Z,15.68
2022-10-23T22:58:31.237Z,15.48
2022-10-23T23:03:43.585Z,15.28
2022-10-23T23:08:55.771Z,15.16
2022-10-23T23:14:08.101Z,15.07
2022-10-23T23:19:20.451Z,15
2022-10-23T23:24:32.838Z,14.96
2022-10-23T23:29:45.066Z,15.03
2022-10-23T23:34:57.526Z,15.09
2022-10-23T23:40:10.029Z,15.12
2022-10-23T23:45:22.646Z,15.14
2022-10-23T23:50:34.896Z,15.05
2022-10-23T23:55:47.427Z,15.08
